KBFF

Western Nebraska Regional / William B Heilig Field Airport

Scottsbluff, Nebraska, USA
KBFF 182326Z 1900/1924 35010KT P6SM BKN030 FM190300 34006KT P6SM BKN050 FM191800 29015G25KT P6SM FEW200 FM192300 28014KT P6SM BKN200
Issued Valid From Valid To
Jan-18 @ 23:26 UTC
(3 hours ago)
Jan-19 @ 00:00 UTC
(2 hours ago)
Jan-20 @ 00:00 UTC
(in 22 hours)
Jan-19 @ 00:00 to Jan-19 @ 03:00
KBFF 182326Z 1900/1924 35010KT P6SM BKN030
Wind Visibility Clouds
350° at 10 knots Greater than 6 miles
  • Broken at 3,000' AGL
From Jan-19 @ 03:00 to Jan-19 @ 18:00
FM190300 34006KT P6SM BKN050
Wind Visibility Clouds
340° at 6 knots Greater than 6 miles
  • Broken at 5,000' AGL
From Jan-19 @ 18:00 to Jan-19 @ 23:00
FM191800 29015G25KT P6SM FEW200
Wind Visibility Clouds
290° at 15 knots
 Gusting to 25 knots
Greater than 6 miles
  • Few at 20,000' AGL
From Jan-19 @ 23:00 to Jan-20 @ 00:00
FM192300 28014KT P6SM BKN200
Wind Visibility Clouds
280° at 14 knots Greater than 6 miles
  • Broken at 20,000' AGL
KBFF 182326Z 1900/1924 35010KT P6SM BKN030 FM190300 34006KT P6SM BKN050 FM191800 29015G25KT P6SM FEW200 FM192300 28014KT P6SM BKN200
Issued Jan-18 @ 23:26 UTC
(3 hours ago)
Valid From Jan-19 @ 00:00 UTC
(2 hours ago)
Valid To Jan-20 @ 00:00 UTC
(in 22 hours)
Jan-19 @ 00:00 - Jan-19 @ 03:00
Wind Visibility
350° at 10 knots Greater than 6 miles
Clouds
  • Broken at 3,000' AGL
From Jan-19 @ 03:00 - Jan-19 @ 18:00
Wind Visibility
340° at 6 knots Greater than 6 miles
Clouds
  • Broken at 5,000' AGL
From Jan-19 @ 18:00 - Jan-19 @ 23:00
Wind Visibility
290° at 15 knots
 Gusting to 25 knots
Greater than 6 miles
Clouds
  • Few at 20,000' AGL
From Jan-19 @ 23:00 - Jan-20 @ 00:00
Wind Visibility
280° at 14 knots Greater than 6 miles
Clouds
  • Broken at 20,000' AGL